El Reno, Oklahoma
Current Conditions -  °F | °C
As of 1:15 PM on Friday 24 Oct 2014 (Local Time) from KRCE Reporting Station
Clear Clear  
Wind Chill: 77°   Ceiling: Unl
Heat Index: 79°   Visibility: NA
Dew Point: 63°   Wind: 14mph
Humidity: 61%   Direction: 180°S
Pressure: 30.1"   Gusts: 21mph
Location:  35.53°N, 97.96°W
Report Text: KRCE 241815Z AUTO 18012G18KT CLR 25/17 A3010 RMK AO2
Loading
Personal Weather Stations






























Interactive Weather Map
Tropical Storm Tracking
New forecast layout! Learn more

10-Day Weather Forecast

Advertisements
Track Severe Weather on mobile